METAR AND TAF INFORMATION
METAR FOR KFMY
ADDS - METARS form results

(0929 UTC 30 September 2020)
Data provider http://aviationweather.gov/metar/data/
 
METAR text: KFMY 300927Z AUTO 05003KT 10SM BKN003 24/24 A2990 RMK AO2 CIG 002V008 T02390239
Conditions at: KFMY (FORT MYERS , FL, US) observed 0927 UTC 30 September 2020
Temperature: 23.9°C (75°F)
Dewpoint: 23.9°C (75°F) [RH = 100%]
Pressure (altimeter): 29.90 inches Hg (1012.6 mb)
Winds: from the NE (50 degrees) at 3 MPH (3 knots; 1.5 m/s)
Visibility: 10 or more miles (16+ km)
Ceiling: 300 feet AGL
Clouds: broken clouds at 300 feet AGL
Weather: automated observation with no human augmentation;
there may or may not be significant weather present at this time

METAR text: KFMY 300853Z AUTO 10004KT 10SM FEW004 24/24 A2989 RMK AO2 SLP124 T02390239 56004
Conditions at: KFMY (FORT MYERS , FL, US) observed 0853 UTC 30 September 2020
Temperature: 23.9°C (75°F)
Dewpoint: 23.9°C (75°F) [RH = 100%]
Pressure (altimeter): 29.89 inches Hg (1012.3 mb)
[Sea-level pressure: 1012.4 mb]
Winds: from the E (100 degrees) at 5 MPH (4 knots; 2.1 m/s)
Visibility: 10 or more miles (16+ km)
Ceiling: at least 12,000 feet AGL
Clouds: few clouds at 400 feet AGL
Weather: automated observation with no human augmentation;
there may or may not be significant weather present at this time

METAR text: KFMY 300844Z AUTO 00000KT 10SM SCT004 24/24 A2990 RMK AO2 T02390239
Conditions at: KFMY (FORT MYERS , FL, US) observed 0844 UTC 30 September 2020
Temperature: 23.9°C (75°F)
Dewpoint: 23.9°C (75°F) [RH = 100%]
Pressure (altimeter): 29.90 inches Hg (1012.6 mb)
Winds: calm
Visibility: 10 or more miles (16+ km)
Ceiling: at least 12,000 feet AGL
Clouds: scattered clouds at 400 feet AGL
Weather: automated observation with no human augmentation;
there may or may not be significant weather present at this time

Forecast for: KFMY (FORT MYERS , FL, US)
Text: KFMY 300554Z 3006/0106 VRB04KT P6SM VCSH BKN020 OVC030
Forecast period: 0600 to 0900 UTC 30 September 2020
Forecast type: FROM: standard forecast or significant change
Winds: variable direction winds at 5 MPH (4 knots; 2.1 m/s)
Visibility: 6 or more miles (10+ km)
Ceiling: 2000 feet AGL
Clouds: broken clouds at 2000 feet AGL
overcast cloud deck at 3000 feet AGL
Weather: VCSH  (showers in vicinity)
Text: FM300900 02007KT P6SM BKN025 OVC035
Forecast period: 0900 to 1600 UTC 30 September 2020
Forecast type: FROM: standard forecast or significant change
Winds: from the NNE (20 degrees) at 8 MPH (7 knots; 3.6 m/s)
Visibility: 6 or more miles (10+ km)
Ceiling: 2500 feet AGL
Clouds: broken clouds at 2500 feet AGL
overcast cloud deck at 3500 feet AGL
Weather: no significant weather forecast for this period
Text: FM301600 05010KT P6SM SCT030 BKN050
Forecast period: 1600 UTC 30 September 2020 to 0100 UTC 01 October 2020
Forecast type: FROM: standard forecast or significant change
Winds: from the NE (50 degrees) at 12 MPH (10 knots; 5.1 m/s)
Visibility: 6 or more miles (10+ km)
Ceiling: 5000 feet AGL
Clouds: scattered clouds at 3000 feet AGL
broken clouds at 5000 feet AGL
Weather: no significant weather forecast for this period
Text: FM010100 06007KT P6SM BKN035 OVC050
Forecast period: 0100 to 0600 UTC 01 October 2020
Forecast type: FROM: standard forecast or significant change
Winds: from the ENE (60 degrees) at 8 MPH (7 knots; 3.6 m/s)
Visibility: 6 or more miles (10+ km)
Ceiling: 3500 feet AGL
Clouds: broken clouds at 3500 feet AGL
overcast cloud deck at 5000 feet AGL
Weather: no significant weather forecast for this period

 AIRPORT MAP

 RUNWAY INFORMATION
Runway 05 Runway length 6406 ft Runway width 150 ft
Runway elevation 14 ft Runway displaced threshold 459 ft Runway heading 48
Runway 23 Runway length 6406 ft Runway width 150 ft
Runway elevation 17 ft Runway displaced threshold 399 ft Runway heading 228
Runway 13 Runway length 4912 ft Runway width 150 ft
Runway elevation 15 ft Runway displaced threshold 615 ft Runway heading 130
Runway 31 Runway length 4912 ft Runway width 150 ft
Runway elevation 15 ft Runway displaced threshold 0 ft Runway heading 310

 AIRPORT FREQUENCIES
Type A/D Name FORT MYERS Frequency 126.8 MHZ
Type ATIS Name ATIS Frequency 123.725 MHZ
Type CLD Name CLNC DEL Frequency 121.7 MHZ
Type CTAF Name CTAF Frequency 119 MHZ
Type GND Name GND Frequency 121.7 MHZ
Type RDO Name MIAMI RDO Frequency 122.2 MHZ
Type TWR Name TWR Frequency 119 MHZ
Type UNIC Name UNICOM Frequency 130.55 MHZ

 AIRPORT NEAR NAVIGATION AIDS